Terminal Aerodrome Forecast
Issued by NWS

Home | Current Version | Previous Version | Text Only | Print | Product List | Glossary On
Versions: 1 2 3 4 5 6 7 8 9 10 11 12 13 14 15 16 17 18 19 20 21 22 23 24 25 26 27 28
000
FTUS46 KLOX 261929 AAA
TAFPMD
TAF AMD
KPMD 261929Z 2619/2718 26010KT P6SM SCT100 SCT200
     FM262000 27010G20KT P6SM SCT100 SCT200
     FM262200 28025G35KT P6SM FEW200
     FM270300 27015KT P6SM SKC
     FM270700 21006KT P6SM SKC
     FM271400 27006KT P6SM SKC=

USA.gov is the U.S. government's official web portal to all federal, state and local government web resources and services.